sensor_id;sensor_type;location;lat;lon;timestamp;P1;durP1;ratioP1;P2;durP2;ratioP2
69305;SDS011;56427;51.580;4.656;2022-10-15T00:02:23;57.27;;;30.47;;
69305;SDS011;56427;51.580;4.656;2022-10-15T00:04:48;59.80;;;32.90;;
69305;SDS011;56427;51.580;4.656;2022-10-15T00:07:13;53.77;;;30.53;;
69305;SDS011;56427;51.580;4.656;2022-10-15T00:09:38;54.47;;;30.47;;
69305;SDS011;56427;51.580;4.656;2022-10-15T00:12:04;62.27;;;32.57;;
69305;SDS011;56427;51.580;4.656;2022-10-15T00:14:29;57.57;;;32.27;;
69305;SDS011;56427;51.580;4.656;2022-10-15T00:16:55;54.63;;;31.20;;
69305;SDS011;56427;51.580;4.656;2022-10-15T00:19:20;56.20;;;33.20;;
69305;SDS011;56427;51.580;4.656;2022-10-15T00:21:45;53.70;;;30.43;;
69305;SDS011;56427;51.580;4.656;2022-10-15T00:24:11;56.90;;;32.27;;
69305;SDS011;56427;51.580;4.656;2022-10-15T00:26:36;58.63;;;30.93;;
69305;SDS011;56427;51.580;4.656;2022-10-15T00:29:01;59.63;;;31.73;;
69305;SDS011;56427;51.580;4.656;2022-10-15T00:31:28;52.28;;;29.85;;
69305;SDS011;56427;51.580;4.656;2022-10-15T00:33:56;56.90;;;30.77;;
69305;SDS011;56427;51.580;4.656;2022-10-15T00:36:24;43.47;;;26.73;;
69305;SDS011;56427;51.580;4.656;2022-10-15T00:38:51;55.42;;;31.33;;
69305;SDS011;56427;51.580;4.656;2022-10-15T00:41:24;50.95;;;30.15;;
69305;SDS011;56427;51.580;4.656;2022-10-15T00:43:56;49.00;;;29.37;;
69305;SDS011;56427;51.580;4.656;2022-10-15T00:49:02;56.58;;;32.13;;
69305;SDS011;56427;51.580;4.656;2022-10-15T00:51:56;51.25;;;31.40;;
69305;SDS011;56427;51.580;4.656;2022-10-15T00:54:25;44.83;;;30.35;;
69305;SDS011;56427;51.580;4.656;2022-10-15T00:56:54;48.60;;;30.63;;
69305;SDS011;56427;51.580;4.656;2022-10-15T00:59:20;48.70;;;32.13;;
69305;SDS011;56427;51.580;4.656;2022-10-15T01:01:47;57.30;;;32.40;;
69305;SDS011;56427;51.580;4.656;2022-10-15T01:04:13;49.25;;;30.23;;
69305;SDS011;56427;51.580;4.656;2022-10-15T01:06:39;60.53;;;33.37;;
69305;SDS011;56427;51.580;4.656;2022-10-15T01:09:04;50.70;;;29.27;;
69305;SDS011;56427;51.580;4.656;2022-10-15T01:11:41;58.17;;;32.20;;
69305;SDS011;56427;51.580;4.656;2022-10-15T01:15:14;44.85;;;28.40;;
69305;SDS011;56427;51.580;4.656;2022-10-15T01:23:13;47.83;;;29.27;;
69305;SDS011;56427;51.580;4.656;2022-10-15T01:26:17;54.07;;;32.27;;
69305;SDS011;56427;51.580;4.656;2022-10-15T01:35:20;56.40;;;32.65;;
69305;SDS011;56427;51.580;4.656;2022-10-15T01:43:29;48.80;;;29.13;;
69305;SDS011;56427;51.580;4.656;2022-10-15T01:46:01;43.70;;;27.98;;
69305;SDS011;56427;51.580;4.656;2022-10-15T01:48:32;47.45;;;29.75;;
69305;SDS011;56427;51.580;4.656;2022-10-15T01:51:01;47.45;;;30.45;;
69305;SDS011;56427;51.580;4.656;2022-10-15T01:53:29;47.33;;;30.00;;
69305;SDS011;56427;51.580;4.656;2022-10-15T01:55:59;55.92;;;32.90;;
69305;SDS011;56427;51.580;4.656;2022-10-15T01:58:32;45.28;;;29.60;;
69305;SDS011;56427;51.580;4.656;2022-10-15T02:01:02;63.85;;;33.42;;
69305;SDS011;56427;51.580;4.656;2022-10-15T02:03:28;54.07;;;31.70;;
69305;SDS011;56427;51.580;4.656;2022-10-15T02:05:55;53.92;;;32.17;;
69305;SDS011;56427;51.580;4.656;2022-10-15T02:08:31;60.33;;;33.50;;
69305;SDS011;56427;51.580;4.656;2022-10-15T02:11:11;56.22;;;33.38;;
69305;SDS011;56427;51.580;4.656;2022-10-15T02:13:41;62.20;;;32.97;;
69305;SDS011;56427;51.580;4.656;2022-10-15T02:16:24;52.22;;;29.83;;
69305;SDS011;56427;51.580;4.656;2022-10-15T02:21:41;48.97;;;30.10;;
69305;SDS011;56427;51.580;4.656;2022-10-15T02:24:31;52.58;;;31.23;;
69305;SDS011;56427;51.580;4.656;2022-10-15T02:27:05;48.95;;;29.27;;
69305;SDS011;56427;51.580;4.656;2022-10-15T02:29:32;49.88;;;30.63;;
69305;SDS011;56427;51.580;4.656;2022-10-15T02:32:00;50.00;;;29.98;;
69305;SDS011;56427;51.580;4.656;2022-10-15T02:34:29;44.33;;;27.80;;
69305;SDS011;56427;51.580;4.656;2022-10-15T02:36:57;62.22;;;33.03;;
69305;SDS011;56427;51.580;4.656;2022-10-15T02:39:24;54.67;;;31.13;;
69305;SDS011;56427;51.580;4.656;2022-10-15T02:41:50;47.83;;;28.90;;
69305;SDS011;56427;51.580;4.656;2022-10-15T02:44:17;50.25;;;30.70;;
69305;SDS011;56427;51.580;4.656;2022-10-15T02:46:42;53.33;;;31.23;;
69305;SDS011;56427;51.580;4.656;2022-10-15T02:49:08;58.53;;;32.90;;
69305;SDS011;56427;51.580;4.656;2022-10-15T02:51:34;55.63;;;32.10;;
69305;SDS011;56427;51.580;4.656;2022-10-15T02:54:00;49.73;;;30.13;;
69305;SDS011;56427;51.580;4.656;2022-10-15T02:56:27;60.35;;;31.70;;
69305;SDS011;56427;51.580;4.656;2022-10-15T02:58:53;59.05;;;33.25;;
69305;SDS011;56427;51.580;4.656;2022-10-15T03:01:18;55.63;;;31.70;;
69305;SDS011;56427;51.580;4.656;2022-10-15T03:03:44;77.37;;;36.03;;
69305;SDS011;56427;51.580;4.656;2022-10-15T03:06:09;63.07;;;34.73;;
69305;SDS011;56427;51.580;4.656;2022-10-15T03:08:34;52.50;;;30.03;;
69305;SDS011;56427;51.580;4.656;2022-10-15T03:11:00;54.40;;;30.50;;
69305;SDS011;56427;51.580;4.656;2022-10-15T03:13:26;60.13;;;33.73;;
69305;SDS011;56427;51.580;4.656;2022-10-15T03:15:52;59.67;;;32.05;;
69305;SDS011;56427;51.580;4.656;2022-10-15T03:18:17;79.10;;;36.73;;
69305;SDS011;56427;51.580;4.656;2022-10-15T03:20:43;61.07;;;32.57;;
69305;SDS011;56427;51.580;4.656;2022-10-15T03:23:08;66.37;;;34.60;;
69305;SDS011;56427;51.580;4.656;2022-10-15T03:25:33;70.93;;;34.53;;
69305;SDS011;56427;51.580;4.656;2022-10-15T03:27:59;59.67;;;32.93;;
69305;SDS011;56427;51.580;4.656;2022-10-15T03:30:24;75.53;;;36.83;;
69305;SDS011;56427;51.580;4.656;2022-10-15T03:32:49;66.90;;;32.03;;
69305;SDS011;56427;51.580;4.656;2022-10-15T03:35:14;71.03;;;33.43;;
69305;SDS011;56427;51.580;4.656;2022-10-15T03:37:40;67.27;;;32.87;;
69305;SDS011;56427;51.580;4.656;2022-10-15T03:40:05;82.40;;;34.10;;
69305;SDS011;56427;51.580;4.656;2022-10-15T03:42:31;87.45;;;35.47;;
69305;SDS011;56427;51.580;4.656;2022-10-15T03:44:56;96.57;;;38.87;;
69305;SDS011;56427;51.580;4.656;2022-10-15T03:47:22;75.40;;;35.00;;
69305;SDS011;56427;51.580;4.656;2022-10-15T03:49:47;80.87;;;36.03;;
69305;SDS011;56427;51.580;4.656;2022-10-15T03:52:12;89.03;;;37.60;;
69305;SDS011;56427;51.580;4.656;2022-10-15T03:54:38;66.00;;;32.85;;
69305;SDS011;56427;51.580;4.656;2022-10-15T03:57:03;111.60;;;40.30;;
69305;SDS011;56427;51.580;4.656;2022-10-15T03:59:29;81.67;;;34.93;;
69305;SDS011;56427;51.580;4.656;2022-10-15T04:01:55;85.27;;;35.80;;
69305;SDS011;56427;51.580;4.656;2022-10-15T04:04:20;96.57;;;38.78;;
69305;SDS011;56427;51.580;4.656;2022-10-15T04:06:45;110.37;;;38.97;;
69305;SDS011;56427;51.580;4.656;2022-10-15T04:09:11;98.15;;;37.78;;
69305;SDS011;56427;51.580;4.656;2022-10-15T04:11:37;77.63;;;34.87;;
69305;SDS011;56427;51.580;4.656;2022-10-15T04:14:03;105.37;;;35.93;;
69305;SDS011;56427;51.580;4.656;2022-10-15T04:16:29;110.40;;;38.95;;
69305;SDS011;56427;51.580;4.656;2022-10-15T04:18:54;84.20;;;35.13;;
69305;SDS011;56427;51.580;4.656;2022-10-15T04:21:19;71.43;;;32.90;;
69305;SDS011;56427;51.580;4.656;2022-10-15T04:23:45;65.22;;;31.67;;
69305;SDS011;56427;51.580;4.656;2022-10-15T04:26:10;84.47;;;34.93;;
69305;SDS011;56427;51.580;4.656;2022-10-15T04:28:36;109.87;;;37.10;;
69305;SDS011;56427;51.580;4.656;2022-10-15T04:31:01;113.77;;;36.57;;
69305;SDS011;56427;51.580;4.656;2022-10-15T04:33:27;84.32;;;33.55;;
69305;SDS011;56427;51.580;4.656;2022-10-15T04:35:59;86.30;;;34.80;;
69305;SDS011;56427;51.580;4.656;2022-10-15T04:38:27;96.68;;;35.53;;
69305;SDS011;56427;51.580;4.656;2022-10-15T04:41:06;90.30;;;35.33;;
69305;SDS011;56427;51.580;4.656;2022-10-15T04:43:33;114.28;;;37.92;;
69305;SDS011;56427;51.580;4.656;2022-10-15T04:46:00;77.97;;;33.30;;
69305;SDS011;56427;51.580;4.656;2022-10-15T04:48:27;103.28;;;34.40;;
69305;SDS011;56427;51.580;4.656;2022-10-15T04:50:54;75.07;;;32.83;;
69305;SDS011;56427;51.580;4.656;2022-10-15T04:53:20;96.03;;;35.03;;
69305;SDS011;56427;51.580;4.656;2022-10-15T04:55:45;111.23;;;35.80;;
69305;SDS011;56427;51.580;4.656;2022-10-15T04:58:11;98.57;;;33.73;;
69305;SDS011;56427;51.580;4.656;2022-10-15T05:00:37;84.95;;;31.75;;
69305;SDS011;56427;51.580;4.656;2022-10-15T05:03:03;100.37;;;33.43;;
69305;SDS011;56427;51.580;4.656;2022-10-15T05:05:30;88.63;;;32.28;;
69305;SDS011;56427;51.580;4.656;2022-10-15T05:07:59;91.40;;;33.70;;
69305;SDS011;56427;51.580;4.656;2022-10-15T05:10:26;94.53;;;32.97;;
69305;SDS011;56427;51.580;4.656;2022-10-15T05:12:51;79.68;;;30.33;;
69305;SDS011;56427;51.580;4.656;2022-10-15T05:15:16;68.90;;;30.03;;
69305;SDS011;56427;51.580;4.656;2022-10-15T05:17:41;82.90;;;30.73;;
69305;SDS011;56427;51.580;4.656;2022-10-15T05:20:07;78.50;;;30.20;;
69305;SDS011;56427;51.580;4.656;2022-10-15T05:22:32;63.47;;;28.03;;
69305;SDS011;56427;51.580;4.656;2022-10-15T05:24:58;68.13;;;27.52;;
69305;SDS011;56427;51.580;4.656;2022-10-15T05:27:23;80.83;;;29.17;;
69305;SDS011;56427;51.580;4.656;2022-10-15T05:29:48;71.03;;;29.17;;
69305;SDS011;56427;51.580;4.656;2022-10-15T05:32:14;67.13;;;28.70;;
69305;SDS011;56427;51.580;4.656;2022-10-15T05:34:39;58.50;;;26.60;;
69305;SDS011;56427;51.580;4.656;2022-10-15T05:37:05;56.20;;;26.97;;
69305;SDS011;56427;51.580;4.656;2022-10-15T05:39:30;68.70;;;27.15;;
69305;SDS011;56427;51.580;4.656;2022-10-15T05:41:56;64.47;;;24.93;;
69305;SDS011;56427;51.580;4.656;2022-10-15T05:44:22;49.88;;;25.10;;
69305;SDS011;56427;51.580;4.656;2022-10-15T05:46:47;63.20;;;25.10;;
69305;SDS011;56427;51.580;4.656;2022-10-15T05:49:12;72.57;;;26.73;;
69305;SDS011;56427;51.580;4.656;2022-10-15T05:51:38;59.77;;;23.93;;
69305;SDS011;56427;51.580;4.656;2022-10-15T05:54:03;55.47;;;24.10;;
69305;SDS011;56427;51.580;4.656;2022-10-15T05:56:28;56.57;;;23.60;;
69305;SDS011;56427;51.580;4.656;2022-10-15T05:58:53;60.33;;;24.53;;
69305;SDS011;56427;51.580;4.656;2022-10-15T06:01:19;63.75;;;25.05;;
69305;SDS011;56427;51.580;4.656;2022-10-15T06:03:45;68.50;;;25.03;;
69305;SDS011;56427;51.580;4.656;2022-10-15T06:06:20;58.63;;;23.83;;
69305;SDS011;56427;51.580;4.656;2022-10-15T06:08:47;59.70;;;24.33;;
69305;SDS011;56427;51.580;4.656;2022-10-15T06:11:13;57.33;;;23.77;;
69305;SDS011;56427;51.580;4.656;2022-10-15T06:13:40;59.90;;;24.23;;
69305;SDS011;56427;51.580;4.656;2022-10-15T06:16:07;58.60;;;24.52;;
69305;SDS011;56427;51.580;4.656;2022-10-15T06:18:33;62.70;;;25.00;;
69305;SDS011;56427;51.580;4.656;2022-10-15T06:20:58;67.18;;;25.13;;
69305;SDS011;56427;51.580;4.656;2022-10-15T06:23:23;71.37;;;24.60;;
69305;SDS011;56427;51.580;4.656;2022-10-15T06:25:49;61.83;;;24.87;;
69305;SDS011;56427;51.580;4.656;2022-10-15T06:28:15;62.83;;;24.67;;
69305;SDS011;56427;51.580;4.656;2022-10-15T06:30:40;67.37;;;25.50;;
69305;SDS011;56427;51.580;4.656;2022-10-15T06:33:06;60.13;;;23.77;;
69305;SDS011;56427;51.580;4.656;2022-10-15T06:35:31;54.27;;;22.57;;
69305;SDS011;56427;51.580;4.656;2022-10-15T06:38:00;64.40;;;25.00;;
69305;SDS011;56427;51.580;4.656;2022-10-15T06:40:27;49.80;;;21.77;;
69305;SDS011;56427;51.580;4.656;2022-10-15T06:42:52;52.95;;;23.15;;
69305;SDS011;56427;51.580;4.656;2022-10-15T06:45:18;45.87;;;21.37;;
69305;SDS011;56427;51.580;4.656;2022-10-15T06:47:43;49.40;;;21.00;;
69305;SDS011;56427;51.580;4.656;2022-10-15T06:50:08;46.60;;;20.47;;
69305;SDS011;56427;51.580;4.656;2022-10-15T06:52:34;45.97;;;20.77;;
69305;SDS011;56427;51.580;4.656;2022-10-15T06:55:00;45.57;;;20.53;;
69305;SDS011;56427;51.580;4.656;2022-10-15T06:57:28;41.47;;;19.73;;
69305;SDS011;56427;51.580;4.656;2022-10-15T06:59:54;39.65;;;18.70;;
69305;SDS011;56427;51.580;4.656;2022-10-15T07:02:19;36.97;;;18.17;;
69305;SDS011;56427;51.580;4.656;2022-10-15T07:04:45;38.80;;;18.53;;
69305;SDS011;56427;51.580;4.656;2022-10-15T07:07:10;39.72;;;18.30;;
69305;SDS011;56427;51.580;4.656;2022-10-15T07:09:36;39.73;;;18.83;;
69305;SDS011;56427;51.580;4.656;2022-10-15T07:12:01;35.73;;;17.20;;
69305;SDS011;56427;51.580;4.656;2022-10-15T07:14:27;32.92;;;17.33;;
69305;SDS011;56427;51.580;4.656;2022-10-15T07:16:53;29.97;;;16.43;;
69305;SDS011;56427;51.580;4.656;2022-10-15T07:19:18;32.07;;;17.43;;
69305;SDS011;56427;51.580;4.656;2022-10-15T07:21:43;33.97;;;17.50;;
69305;SDS011;56427;51.580;4.656;2022-10-15T07:24:09;36.58;;;18.48;;
69305;SDS011;56427;51.580;4.656;2022-10-15T07:26:34;31.20;;;16.53;;
69305;SDS011;56427;51.580;4.656;2022-10-15T07:28:59;34.57;;;17.87;;
69305;SDS011;56427;51.580;4.656;2022-10-15T07:31:25;30.80;;;16.30;;
69305;SDS011;56427;51.580;4.656;2022-10-15T07:33:51;34.08;;;18.17;;
69305;SDS011;56427;51.580;4.656;2022-10-15T07:36:16;32.33;;;17.47;;
69305;SDS011;56427;51.580;4.656;2022-10-15T07:38:41;32.10;;;18.00;;
69305;SDS011;56427;51.580;4.656;2022-10-15T07:41:08;29.20;;;17.52;;
69305;SDS011;56427;51.580;4.656;2022-10-15T07:43:34;28.63;;;17.13;;
69305;SDS011;56427;51.580;4.656;2022-10-15T07:46:01;27.57;;;15.87;;
69305;SDS011;56427;51.580;4.656;2022-10-15T07:48:27;25.27;;;14.45;;
69305;SDS011;56427;51.580;4.656;2022-10-15T07:50:53;24.20;;;14.73;;
69305;SDS011;56427;51.580;4.656;2022-10-15T07:53:22;22.73;;;14.60;;
69305;SDS011;56427;51.580;4.656;2022-10-15T07:55:48;22.95;;;14.38;;
69305;SDS011;56427;51.580;4.656;2022-10-15T07:58:13;25.33;;;13.60;;
69305;SDS011;56427;51.580;4.656;2022-10-15T08:00:39;23.80;;;13.43;;
69305;SDS011;56427;51.580;4.656;2022-10-15T08:03:04;22.10;;;12.67;;
69305;SDS011;56427;51.580;4.656;2022-10-15T08:05:29;21.73;;;13.10;;
69305;SDS011;56427;51.580;4.656;2022-10-15T08:07:55;20.63;;;12.20;;
69305;SDS011;56427;51.580;4.656;2022-10-15T08:10:20;20.63;;;11.83;;
69305;SDS011;56427;51.580;4.656;2022-10-15T08:12:45;22.70;;;12.23;;
69305;SDS011;56427;51.580;4.656;2022-10-15T08:15:11;21.40;;;12.40;;
69305;SDS011;56427;51.580;4.656;2022-10-15T08:17:36;20.33;;;11.47;;
69305;SDS011;56427;51.580;4.656;2022-10-15T08:20:02;20.63;;;11.80;;
69305;SDS011;56427;51.580;4.656;2022-10-15T08:22:27;17.38;;;10.43;;
69305;SDS011;56427;51.580;4.656;2022-10-15T08:24:53;16.57;;;9.93;;
69305;SDS011;56427;51.580;4.656;2022-10-15T08:27:18;16.53;;;9.10;;
69305;SDS011;56427;51.580;4.656;2022-10-15T08:29:44;17.40;;;9.90;;
69305;SDS011;56427;51.580;4.656;2022-10-15T08:32:11;19.98;;;10.40;;
69305;SDS011;56427;51.580;4.656;2022-10-15T08:34:36;18.55;;;9.35;;
69305;SDS011;56427;51.580;4.656;2022-10-15T08:37:02;17.00;;;9.90;;
69305;SDS011;56427;51.580;4.656;2022-10-15T08:39:27;19.57;;;9.87;;
69305;SDS011;56427;51.580;4.656;2022-10-15T08:41:53;21.77;;;10.73;;
69305;SDS011;56427;51.580;4.656;2022-10-15T08:44:26;19.80;;;10.00;;
69305;SDS011;56427;51.580;4.656;2022-10-15T08:47:07;23.83;;;10.37;;
69305;SDS011;56427;51.580;4.656;2022-10-15T08:49:53;22.73;;;11.18;;
69305;SDS011;56427;51.580;4.656;2022-10-15T08:55:01;25.50;;;11.52;;
69305;SDS011;56427;51.580;4.656;2022-10-15T09:00:20;24.17;;;10.63;;
69305;SDS011;56427;51.580;4.656;2022-10-15T09:02:57;24.98;;;11.55;;
69305;SDS011;56427;51.580;4.656;2022-10-15T09:05:45;27.30;;;11.85;;
69305;SDS011;56427;51.580;4.656;2022-10-15T09:13:51;22.80;;;10.70;;
69305;SDS011;56427;51.580;4.656;2022-10-15T09:16:18;26.47;;;11.23;;
69305;SDS011;56427;51.580;4.656;2022-10-15T09:18:49;23.27;;;11.32;;
69305;SDS011;56427;51.580;4.656;2022-10-15T09:21:16;24.88;;;10.70;;
69305;SDS011;56427;51.580;4.656;2022-10-15T09:23:43;21.63;;;9.45;;
69305;SDS011;56427;51.580;4.656;2022-10-15T09:28:38;21.42;;;9.90;;
69305;SDS011;56427;51.580;4.656;2022-10-15T09:31:10;23.05;;;10.35;;
69305;SDS011;56427;51.580;4.656;2022-10-15T09:33:44;20.83;;;9.20;;
69305;SDS011;56427;51.580;4.656;2022-10-15T09:36:17;19.90;;;9.07;;
69305;SDS011;56427;51.580;4.656;2022-10-15T09:41:56;19.58;;;8.88;;
69305;SDS011;56427;51.580;4.656;2022-10-15T09:44:44;17.63;;;8.52;;
69305;SDS011;56427;51.580;4.656;2022-10-15T09:47:22;14.60;;;8.55;;
69305;SDS011;56427;51.580;4.656;2022-10-15T09:49:49;18.75;;;8.73;;
69305;SDS011;56427;51.580;4.656;2022-10-15T09:57:28;13.60;;;7.93;;
69305;SDS011;56427;51.580;4.656;2022-10-15T09:59:57;15.93;;;8.20;;
69305;SDS011;56427;51.580;4.656;2022-10-15T10:02:27;16.65;;;8.98;;
69305;SDS011;56427;51.580;4.656;2022-10-15T10:04:53;14.57;;;8.00;;
69305;SDS011;56427;51.580;4.656;2022-10-15T10:07:27;14.93;;;8.57;;
69305;SDS011;56427;51.580;4.656;2022-10-15T10:09:53;12.80;;;8.07;;
69305;SDS011;56427;51.580;4.656;2022-10-15T10:12:21;12.00;;;7.60;;
69305;SDS011;56427;51.580;4.656;2022-10-15T10:14:57;16.50;;;9.13;;
69305;SDS011;56427;51.580;4.656;2022-10-15T10:17:27;13.07;;;7.85;;
69305;SDS011;56427;51.580;4.656;2022-10-15T10:22:50;12.33;;;7.33;;
69305;SDS011;56427;51.580;4.656;2022-10-15T10:25:29;11.18;;;7.03;;
69305;SDS011;56427;51.580;4.656;2022-10-15T10:28:02;11.15;;;6.53;;
69305;SDS011;56427;51.580;4.656;2022-10-15T10:30:33;13.90;;;7.38;;
69305;SDS011;56427;51.580;4.656;2022-10-15T10:33:01;9.32;;;6.15;;
69305;SDS011;56427;51.580;4.656;2022-10-15T10:35:31;12.53;;;7.30;;
69305;SDS011;56427;51.580;4.656;2022-10-15T10:38:00;9.90;;;6.93;;
69305;SDS011;56427;51.580;4.656;2022-10-15T10:40:28;8.02;;;5.47;;
69305;SDS011;56427;51.580;4.656;2022-10-15T10:45:49;12.90;;;6.63;;
69305;SDS011;56427;51.580;4.656;2022-10-15T10:48:25;13.68;;;8.25;;
69305;SDS011;56427;51.580;4.656;2022-10-15T10:53:53;13.80;;;8.77;;
69305;SDS011;56427;51.580;4.656;2022-10-15T10:56:54;13.45;;;8.35;;
69305;SDS011;56427;51.580;4.656;2022-10-15T11:01:38;14.00;;;9.30;;
69305;SDS011;56427;51.580;4.656;2022-10-15T11:04:07;15.27;;;10.27;;
69305;SDS011;56427;51.580;4.656;2022-10-15T11:09:10;13.27;;;9.75;;
69305;SDS011;56427;51.580;4.656;2022-10-15T11:23:25;16.45;;;10.65;;
69305;SDS011;56427;51.580;4.656;2022-10-15T11:26:16;12.02;;;9.80;;
69305;SDS011;56427;51.580;4.656;2022-10-15T11:28:50;12.27;;;9.07;;
69305;SDS011;56427;51.580;4.656;2022-10-15T11:31:34;13.73;;;9.48;;
69305;SDS011;56427;51.580;4.656;2022-10-15T11:34:24;10.20;;;8.57;;
69305;SDS011;56427;51.580;4.656;2022-10-15T11:42:56;9.73;;;7.60;;
69305;SDS011;56427;51.580;4.656;2022-10-15T11:45:39;12.18;;;9.10;;
69305;SDS011;56427;51.580;4.656;2022-10-15T11:48:28;12.33;;;8.77;;
69305;SDS011;56427;51.580;4.656;2022-10-15T11:51:00;13.75;;;8.40;;
69305;SDS011;56427;51.580;4.656;2022-10-15T11:56:29;10.50;;;8.13;;
69305;SDS011;56427;51.580;4.656;2022-10-15T11:59:00;10.38;;;8.07;;
69305;SDS011;56427;51.580;4.656;2022-10-15T12:01:44;12.27;;;8.97;;
69305;SDS011;56427;51.580;4.656;2022-10-15T12:04:16;9.63;;;7.82;;
69305;SDS011;56427;51.580;4.656;2022-10-15T12:06:49;9.13;;;7.88;;
69305;SDS011;56427;51.580;4.656;2022-10-15T12:09:21;10.40;;;7.15;;
69305;SDS011;56427;51.580;4.656;2022-10-15T12:11:54;11.27;;;7.55;;
69305;SDS011;56427;51.580;4.656;2022-10-15T12:17:15;9.50;;;6.53;;
69305;SDS011;56427;51.580;4.656;2022-10-15T12:19:57;7.78;;;6.40;;
69305;SDS011;56427;51.580;4.656;2022-10-15T12:25:02;9.10;;;6.32;;
69305;SDS011;56427;51.580;4.656;2022-10-15T12:27:30;10.67;;;6.63;;
69305;SDS011;56427;51.580;4.656;2022-10-15T12:32:37;7.80;;;5.57;;
69305;SDS011;56427;51.580;4.656;2022-10-15T12:35:20;7.25;;;5.93;;
69305;SDS011;56427;51.580;4.656;2022-10-15T12:37:48;9.10;;;6.10;;
69305;SDS011;56427;51.580;4.656;2022-10-15T12:42:58;26.10;;;8.83;;
69305;SDS011;56427;51.580;4.656;2022-10-15T12:45:33;7.20;;;3.92;;
69305;SDS011;56427;51.580;4.656;2022-10-15T12:50:29;4.00;;;1.57;;
69305;SDS011;56427;51.580;4.656;2022-10-15T12:53:03;5.20;;;1.90;;
69305;SDS011;56427;51.580;4.656;2022-10-15T12:58:37;5.30;;;2.20;;
69305;SDS011;56427;51.580;4.656;2022-10-15T13:01:26;3.78;;;2.17;;
69305;SDS011;56427;51.580;4.656;2022-10-15T13:04:08;3.83;;;2.00;;
69305;SDS011;56427;51.580;4.656;2022-10-15T13:06:33;6.60;;;2.75;;
69305;SDS011;56427;51.580;4.656;2022-10-15T13:17:05;4.32;;;1.88;;
69305;SDS011;56427;51.580;4.656;2022-10-15T13:19:39;4.65;;;2.22;;
69305;SDS011;56427;51.580;4.656;2022-10-15T13:22:21;6.90;;;1.63;;
69305;SDS011;56427;51.580;4.656;2022-10-15T13:24:49;4.28;;;1.60;;
69305;SDS011;56427;51.580;4.656;2022-10-15T13:27:18;2.95;;;1.40;;
69305;SDS011;56427;51.580;4.656;2022-10-15T13:30:00;3.03;;;1.23;;
69305;SDS011;56427;51.580;4.656;2022-10-15T13:32:30;3.38;;;1.08;;
69305;SDS011;56427;51.580;4.656;2022-10-15T13:34:57;2.75;;;0.80;;
69305;SDS011;56427;51.580;4.656;2022-10-15T13:37:34;3.40;;;0.80;;
69305;SDS011;56427;51.580;4.656;2022-10-15T13:40:02;3.42;;;0.90;;
69305;SDS011;56427;51.580;4.656;2022-10-15T13:42:28;6.63;;;0.80;;
69305;SDS011;56427;51.580;4.656;2022-10-15T13:47:50;5.05;;;0.75;;
69305;SDS011;56427;51.580;4.656;2022-10-15T13:52:47;5.97;;;1.20;;
69305;SDS011;56427;51.580;4.656;2022-10-15T13:55:26;3.40;;;0.80;;
69305;SDS011;56427;51.580;4.656;2022-10-15T13:57:57;5.20;;;0.80;;
69305;SDS011;56427;51.580;4.656;2022-10-15T14:00:34;3.00;;;0.90;;
69305;SDS011;56427;51.580;4.656;2022-10-15T14:05:44;3.20;;;0.85;;
69305;SDS011;56427;51.580;4.656;2022-10-15T14:08:54;5.97;;;0.88;;
69305;SDS011;56427;51.580;4.656;2022-10-15T14:11:00;3.07;;;0.77;;
69305;SDS011;56427;51.580;4.656;2022-10-15T14:13:26;11.35;;;1.27;;
69305;SDS011;56427;51.580;4.656;2022-10-15T14:18:38;4.65;;;1.00;;
69305;SDS011;56427;51.580;4.656;2022-10-15T14:21:10;4.57;;;1.10;;
69305;SDS011;56427;51.580;4.656;2022-10-15T14:23:37;5.00;;;1.10;;
69305;SDS011;56427;51.580;4.656;2022-10-15T14:26:03;5.55;;;1.20;;
69305;SDS011;56427;51.580;4.656;2022-10-15T14:28:29;3.90;;;0.90;;
69305;SDS011;56427;51.580;4.656;2022-10-15T14:30:56;2.70;;;0.75;;
69305;SDS011;56427;51.580;4.656;2022-10-15T14:38:30;3.70;;;0.70;;
69305;SDS011;56427;51.580;4.656;2022-10-15T14:40:57;5.40;;;0.90;;
69305;SDS011;56427;51.580;4.656;2022-10-15T14:43:28;6.37;;;1.20;;
69305;SDS011;56427;51.580;4.656;2022-10-15T14:45:57;5.07;;;1.23;;
69305;SDS011;56427;51.580;4.656;2022-10-15T14:48:25;5.15;;;1.02;;
69305;SDS011;56427;51.580;4.656;2022-10-15T14:50:55;4.53;;;1.17;;
69305;SDS011;56427;51.580;4.656;2022-10-15T14:53:24;7.45;;;1.63;;
69305;SDS011;56427;51.580;4.656;2022-10-15T14:55:59;5.20;;;1.63;;
69305;SDS011;56427;51.580;4.656;2022-10-15T14:58:27;5.05;;;1.20;;
69305;SDS011;56427;51.580;4.656;2022-10-15T15:00:54;5.05;;;1.35;;
69305;SDS011;56427;51.580;4.656;2022-10-15T15:03:21;5.68;;;1.92;;
69305;SDS011;56427;51.580;4.656;2022-10-15T15:05:53;3.53;;;1.27;;
69305;SDS011;56427;51.580;4.656;2022-10-15T15:08:20;5.07;;;1.80;;
69305;SDS011;56427;51.580;4.656;2022-10-15T15:10:46;4.68;;;1.48;;
69305;SDS011;56427;51.580;4.656;2022-10-15T15:13:14;6.93;;;1.33;;
69305;SDS011;56427;51.580;4.656;2022-10-15T15:15:44;5.72;;;1.20;;
69305;SDS011;56427;51.580;4.656;2022-10-15T15:18:09;3.80;;;1.07;;
69305;SDS011;56427;51.580;4.656;2022-10-15T15:20:35;4.57;;;0.93;;
69305;SDS011;56427;51.580;4.656;2022-10-15T15:23:01;3.23;;;1.07;;
69305;SDS011;56427;51.580;4.656;2022-10-15T15:25:28;3.60;;;0.90;;
69305;SDS011;56427;51.580;4.656;2022-10-15T15:27:57;3.45;;;1.02;;
69305;SDS011;56427;51.580;4.656;2022-10-15T15:30:24;3.95;;;1.00;;
69305;SDS011;56427;51.580;4.656;2022-10-15T15:32:50;5.87;;;1.00;;
69305;SDS011;56427;51.580;4.656;2022-10-15T15:35:20;4.25;;;0.90;;
69305;SDS011;56427;51.580;4.656;2022-10-15T15:37:49;3.50;;;0.90;;
69305;SDS011;56427;51.580;4.656;2022-10-15T15:40:15;3.63;;;0.93;;
69305;SDS011;56427;51.580;4.656;2022-10-15T15:42:40;4.22;;;0.85;;
69305;SDS011;56427;51.580;4.656;2022-10-15T15:45:14;3.65;;;1.08;;
69305;SDS011;56427;51.580;4.656;2022-10-15T15:47:43;3.40;;;1.10;;
69305;SDS011;56427;51.580;4.656;2022-10-15T15:50:08;6.78;;;1.00;;
69305;SDS011;56427;51.580;4.656;2022-10-15T15:52:34;3.50;;;0.70;;
69305;SDS011;56427;51.580;4.656;2022-10-15T15:54:59;2.80;;;1.20;;
69305;SDS011;56427;51.580;4.656;2022-10-15T15:57:24;5.63;;;1.07;;
69305;SDS011;56427;51.580;4.656;2022-10-15T15:59:49;6.97;;;1.50;;
69305;SDS011;56427;51.580;4.656;2022-10-15T16:02:15;5.93;;;2.97;;
69305;SDS011;56427;51.580;4.656;2022-10-15T16:04:40;6.77;;;1.70;;
69305;SDS011;56427;51.580;4.656;2022-10-15T16:07:05;5.67;;;1.20;;
69305;SDS011;56427;51.580;4.656;2022-10-15T16:09:31;5.60;;;1.20;;
69305;SDS011;56427;51.580;4.656;2022-10-15T16:11:56;7.37;;;1.60;;
69305;SDS011;56427;51.580;4.656;2022-10-15T16:14:21;6.30;;;1.40;;
69305;SDS011;56427;51.580;4.656;2022-10-15T16:16:46;9.03;;;1.50;;
69305;SDS011;56427;51.580;4.656;2022-10-15T16:19:12;7.50;;;1.63;;
69305;SDS011;56427;51.580;4.656;2022-10-15T16:21:37;4.90;;;1.40;;
69305;SDS011;56427;51.580;4.656;2022-10-15T16:24:03;4.43;;;1.50;;
69305;SDS011;56427;51.580;4.656;2022-10-15T16:26:28;7.22;;;1.40;;
69305;SDS011;56427;51.580;4.656;2022-10-15T16:28:54;7.20;;;1.90;;
69305;SDS011;56427;51.580;4.656;2022-10-15T16:31:20;6.30;;;1.53;;
69305;SDS011;56427;51.580;4.656;2022-10-15T16:33:47;5.40;;;1.40;;
69305;SDS011;56427;51.580;4.656;2022-10-15T16:36:13;7.68;;;1.98;;
69305;SDS011;56427;51.580;4.656;2022-10-15T16:38:39;5.73;;;1.83;;
69305;SDS011;56427;51.580;4.656;2022-10-15T16:41:05;5.32;;;1.70;;